sensor_id;sensor_type;location;lat;lon;timestamp;temperature;humidity
8105;DHT22;4095;48.942;9.104;2023-01-23T00:01:48;4.60;99.90
8105;DHT22;4095;48.942;9.104;2023-01-23T00:04:14;4.50;99.90
8105;DHT22;4095;48.942;9.104;2023-01-23T00:06:40;4.50;99.90
8105;DHT22;4095;48.942;9.104;2023-01-23T00:09:06;4.60;99.90
8105;DHT22;4095;48.942;9.104;2023-01-23T00:11:32;4.50;99.90
8105;DHT22;4095;48.942;9.104;2023-01-23T00:13:59;4.60;99.90
8105;DHT22;4095;48.942;9.104;2023-01-23T00:16:27;4.60;99.90
8105;DHT22;4095;48.942;9.104;2023-01-23T00:18:57;4.60;99.90
8105;DHT22;4095;48.942;9.104;2023-01-23T00:21:24;4.60;99.90
8105;DHT22;4095;48.942;9.104;2023-01-23T00:23:53;4.60;99.90
8105;DHT22;4095;48.942;9.104;2023-01-23T00:26:21;4.60;99.90
8105;DHT22;4095;48.942;9.104;2023-01-23T00:28:47;4.60;99.90
8105;DHT22;4095;48.942;9.104;2023-01-23T00:31:24;4.60;99.90
8105;DHT22;4095;48.942;9.104;2023-01-23T00:33:54;4.60;99.90
8105;DHT22;4095;48.942;9.104;2023-01-23T00:36:20;4.60;99.90
8105;DHT22;4095;48.942;9.104;2023-01-23T00:38:46;4.60;99.90
8105;DHT22;4095;48.942;9.104;2023-01-23T00:41:11;4.60;99.90
8105;DHT22;4095;48.942;9.104;2023-01-23T00:43:37;4.50;99.90
8105;DHT22;4095;48.942;9.104;2023-01-23T00:46:03;4.50;99.90
8105;DHT22;4095;48.942;9.104;2023-01-23T00:48:29;4.50;99.90
8105;DHT22;4095;48.942;9.104;2023-01-23T00:50:55;4.50;99.90
8105;DHT22;4095;48.942;9.104;2023-01-23T00:53:21;4.50;99.90
8105;DHT22;4095;48.942;9.104;2023-01-23T00:55:47;4.50;99.90
8105;DHT22;4095;48.942;9.104;2023-01-23T00:58:13;4.50;99.90
8105;DHT22;4095;48.942;9.104;2023-01-23T01:00:39;4.50;99.90
8105;DHT22;4095;48.942;9.104;2023-01-23T01:03:05;4.50;99.90
8105;DHT22;4095;48.942;9.104;2023-01-23T01:05:32;4.50;99.90
8105;DHT22;4095;48.942;9.104;2023-01-23T01:07:57;4.50;99.90
8105;DHT22;4095;48.942;9.104;2023-01-23T01:10:23;4.50;99.90
8105;DHT22;4095;48.942;9.104;2023-01-23T01:12:57;4.50;99.90
8105;DHT22;4095;48.942;9.104;2023-01-23T01:15:26;4.60;99.90
8105;DHT22;4095;48.942;9.104;2023-01-23T01:17:52;4.60;99.90
8105;DHT22;4095;48.942;9.104;2023-01-23T01:20:21;4.60;99.90
8105;DHT22;4095;48.942;9.104;2023-01-23T01:22:48;4.60;99.90
8105;DHT22;4095;48.942;9.104;2023-01-23T01:25:14;4.60;99.90
8105;DHT22;4095;48.942;9.104;2023-01-23T01:27:40;4.60;99.90
8105;DHT22;4095;48.942;9.104;2023-01-23T01:30:06;4.60;99.90
8105;DHT22;4095;48.942;9.104;2023-01-23T01:32:35;4.70;99.90
8105;DHT22;4095;48.942;9.104;2023-01-23T01:35:02;4.70;99.90
8105;DHT22;4095;48.942;9.104;2023-01-23T01:37:27;4.70;99.90
8105;DHT22;4095;48.942;9.104;2023-01-23T01:39:53;4.70;99.90
8105;DHT22;4095;48.942;9.104;2023-01-23T01:42:19;4.70;99.90
8105;DHT22;4095;48.942;9.104;2023-01-23T01:44:56;4.70;99.90
8105;DHT22;4095;48.942;9.104;2023-01-23T01:47:22;4.70;99.90
8105;DHT22;4095;48.942;9.104;2023-01-23T01:49:49;4.70;99.90
8105;DHT22;4095;48.942;9.104;2023-01-23T01:52:18;4.60;99.90
8105;DHT22;4095;48.942;9.104;2023-01-23T01:55:04;4.60;99.90
8105;DHT22;4095;48.942;9.104;2023-01-23T01:57:35;4.70;99.90
8105;DHT22;4095;48.942;9.104;2023-01-23T02:00:07;4.70;99.90
8105;DHT22;4095;48.942;9.104;2023-01-23T02:02:37;4.70;99.90
8105;DHT22;4095;48.942;9.104;2023-01-23T02:05:09;4.70;99.90
8105;DHT22;4095;48.942;9.104;2023-01-23T02:07:52;4.70;99.90
8105;DHT22;4095;48.942;9.104;2023-01-23T02:10:20;4.70;99.90
8105;DHT22;4095;48.942;9.104;2023-01-23T02:12:47;4.70;99.90
8105;DHT22;4095;48.942;9.104;2023-01-23T02:15:13;4.70;99.90
8105;DHT22;4095;48.942;9.104;2023-01-23T02:17:39;4.70;99.90
8105;DHT22;4095;48.942;9.104;2023-01-23T02:20:25;4.70;99.90
8105;DHT22;4095;48.942;9.104;2023-01-23T02:23:16;4.70;99.90
8105;DHT22;4095;48.942;9.104;2023-01-23T02:25:57;4.70;99.90
8105;DHT22;4095;48.942;9.104;2023-01-23T02:28:38;4.70;99.90
8105;DHT22;4095;48.942;9.104;2023-01-23T02:31:05;4.70;99.90
8105;DHT22;4095;48.942;9.104;2023-01-23T02:36:24;4.70;99.90
8105;DHT22;4095;48.942;9.104;2023-01-23T02:39:18;4.70;99.90
8105;DHT22;4095;48.942;9.104;2023-01-23T02:41:46;4.70;99.90
8105;DHT22;4095;48.942;9.104;2023-01-23T02:44:19;4.70;99.90
8105;DHT22;4095;48.942;9.104;2023-01-23T02:46:49;4.70;99.90
8105;DHT22;4095;48.942;9.104;2023-01-23T02:49:15;4.70;99.90
8105;DHT22;4095;48.942;9.104;2023-01-23T02:51:41;4.70;99.90
8105;DHT22;4095;48.942;9.104;2023-01-23T02:54:06;4.70;99.90
8105;DHT22;4095;48.942;9.104;2023-01-23T02:56:33;4.70;99.90
8105;DHT22;4095;48.942;9.104;2023-01-23T02:58:58;4.80;99.90
8105;DHT22;4095;48.942;9.104;2023-01-23T03:01:42;4.80;99.90
8105;DHT22;4095;48.942;9.104;2023-01-23T03:04:08;4.70;99.90
8105;DHT22;4095;48.942;9.104;2023-01-23T03:06:35;4.80;99.90
8105;DHT22;4095;48.942;9.104;2023-01-23T03:09:10;4.80;99.90
8105;DHT22;4095;48.942;9.104;2023-01-23T03:11:37;4.80;99.90
8105;DHT22;4095;48.942;9.104;2023-01-23T03:14:04;4.80;99.90
8105;DHT22;4095;48.942;9.104;2023-01-23T03:16:30;4.80;99.90
8105;DHT22;4095;48.942;9.104;2023-01-23T03:18:57;4.80;99.90
8105;DHT22;4095;48.942;9.104;2023-01-23T03:21:25;4.80;99.90
8105;DHT22;4095;48.942;9.104;2023-01-23T03:23:51;4.80;99.90
8105;DHT22;4095;48.942;9.104;2023-01-23T03:26:16;4.80;99.90
8105;DHT22;4095;48.942;9.104;2023-01-23T03:28:42;4.70;99.90
8105;DHT22;4095;48.942;9.104;2023-01-23T03:31:26;4.80;99.90
8105;DHT22;4095;48.942;9.104;2023-01-23T03:33:51;4.80;99.90
8105;DHT22;4095;48.942;9.104;2023-01-23T03:36:17;4.80;99.90
8105;DHT22;4095;48.942;9.104;2023-01-23T03:38:43;4.80;99.90
8105;DHT22;4095;48.942;9.104;2023-01-23T03:41:28;4.80;99.90
8105;DHT22;4095;48.942;9.104;2023-01-23T03:43:55;4.80;99.90
8105;DHT22;4095;48.942;9.104;2023-01-23T03:46:20;4.80;99.90
8105;DHT22;4095;48.942;9.104;2023-01-23T03:48:46;4.80;99.90
8105;DHT22;4095;48.942;9.104;2023-01-23T03:51:11;4.80;99.90
8105;DHT22;4095;48.942;9.104;2023-01-23T03:53:37;4.80;99.90
8105;DHT22;4095;48.942;9.104;2023-01-23T03:56:03;4.70;99.90
8105;DHT22;4095;48.942;9.104;2023-01-23T03:58:28;4.70;99.90
8105;DHT22;4095;48.942;9.104;2023-01-23T04:00:55;4.70;99.90
8105;DHT22;4095;48.942;9.104;2023-01-23T04:03:20;4.70;99.90
8105;DHT22;4095;48.942;9.104;2023-01-23T04:05:46;4.80;99.90
8105;DHT22;4095;48.942;9.104;2023-01-23T04:08:11;4.80;99.90
8105;DHT22;4095;48.942;9.104;2023-01-23T04:10:37;4.80;99.90
8105;DHT22;4095;48.942;9.104;2023-01-23T04:13:03;4.80;99.90
8105;DHT22;4095;48.942;9.104;2023-01-23T04:15:31;4.80;99.90
8105;DHT22;4095;48.942;9.104;2023-01-23T04:17:57;4.80;99.90
8105;DHT22;4095;48.942;9.104;2023-01-23T04:20:23;4.80;99.90
8105;DHT22;4095;48.942;9.104;2023-01-23T04:22:48;4.80;99.90
8105;DHT22;4095;48.942;9.104;2023-01-23T04:25:14;4.70;99.90
8105;DHT22;4095;48.942;9.104;2023-01-23T04:27:39;4.70;99.90
8105;DHT22;4095;48.942;9.104;2023-01-23T04:30:05;4.70;99.90
8105;DHT22;4095;48.942;9.104;2023-01-23T04:32:31;4.70;99.90
8105;DHT22;4095;48.942;9.104;2023-01-23T04:34:56;4.70;99.90
8105;DHT22;4095;48.942;9.104;2023-01-23T04:37:22;4.70;99.90
8105;DHT22;4095;48.942;9.104;2023-01-23T04:39:47;4.70;99.90
8105;DHT22;4095;48.942;9.104;2023-01-23T04:42:13;4.70;99.90
8105;DHT22;4095;48.942;9.104;2023-01-23T04:44:38;4.70;99.90
8105;DHT22;4095;48.942;9.104;2023-01-23T04:47:04;4.70;99.90
8105;DHT22;4095;48.942;9.104;2023-01-23T04:49:29;4.80;99.90
8105;DHT22;4095;48.942;9.104;2023-01-23T04:51:55;4.80;99.90
8105;DHT22;4095;48.942;9.104;2023-01-23T04:54:21;4.80;99.90
8105;DHT22;4095;48.942;9.104;2023-01-23T04:56:47;4.90;99.90
8105;DHT22;4095;48.942;9.104;2023-01-23T04:59:13;4.80;99.90
8105;DHT22;4095;48.942;9.104;2023-01-23T05:01:41;4.80;99.90
8105;DHT22;4095;48.942;9.104;2023-01-23T05:04:07;4.80;99.90
8105;DHT22;4095;48.942;9.104;2023-01-23T05:06:32;4.90;99.90
8105;DHT22;4095;48.942;9.104;2023-01-23T05:08:58;4.80;99.90
8105;DHT22;4095;48.942;9.104;2023-01-23T05:11:23;4.80;99.90
8105;DHT22;4095;48.942;9.104;2023-01-23T05:13:49;4.80;99.90
8105;DHT22;4095;48.942;9.104;2023-01-23T05:16:15;4.80;99.90
8105;DHT22;4095;48.942;9.104;2023-01-23T05:18:41;4.80;99.90
8105;DHT22;4095;48.942;9.104;2023-01-23T05:21:06;4.80;99.90
8105;DHT22;4095;48.942;9.104;2023-01-23T05:23:32;4.80;99.90
8105;DHT22;4095;48.942;9.104;2023-01-23T05:25:57;4.80;99.90
8105;DHT22;4095;48.942;9.104;2023-01-23T05:28:23;4.80;99.90
8105;DHT22;4095;48.942;9.104;2023-01-23T05:30:49;4.80;99.90
8105;DHT22;4095;48.942;9.104;2023-01-23T05:33:14;4.80;99.90
8105;DHT22;4095;48.942;9.104;2023-01-23T05:35:40;4.80;99.90
8105;DHT22;4095;48.942;9.104;2023-01-23T05:38:05;4.80;99.90
8105;DHT22;4095;48.942;9.104;2023-01-23T05:40:31;4.80;99.90
8105;DHT22;4095;48.942;9.104;2023-01-23T05:42:57;4.70;99.90
8105;DHT22;4095;48.942;9.104;2023-01-23T05:45:22;4.70;99.90
8105;DHT22;4095;48.942;9.104;2023-01-23T05:47:48;4.70;99.90
8105;DHT22;4095;48.942;9.104;2023-01-23T05:50:17;4.70;99.90
8105;DHT22;4095;48.942;9.104;2023-01-23T05:52:43;4.70;99.90
8105;DHT22;4095;48.942;9.104;2023-01-23T05:55:09;4.80;99.90
8105;DHT22;4095;48.942;9.104;2023-01-23T05:57:35;4.80;99.90
8105;DHT22;4095;48.942;9.104;2023-01-23T06:00:00;4.70;99.90
8105;DHT22;4095;48.942;9.104;2023-01-23T06:02:26;4.70;99.90
8105;DHT22;4095;48.942;9.104;2023-01-23T06:04:52;4.70;99.90
8105;DHT22;4095;48.942;9.104;2023-01-23T06:07:19;4.70;99.90
8105;DHT22;4095;48.942;9.104;2023-01-23T06:09:45;4.70;99.90
8105;DHT22;4095;48.942;9.104;2023-01-23T06:12:11;4.70;99.90
8105;DHT22;4095;48.942;9.104;2023-01-23T06:14:37;4.70;99.90
8105;DHT22;4095;48.942;9.104;2023-01-23T06:17:02;4.70;99.90
8105;DHT22;4095;48.942;9.104;2023-01-23T06:19:28;4.70;99.90
8105;DHT22;4095;48.942;9.104;2023-01-23T06:21:53;4.70;99.90
8105;DHT22;4095;48.942;9.104;2023-01-23T06:24:19;4.80;99.90
8105;DHT22;4095;48.942;9.104;2023-01-23T06:26:44;4.80;99.90
8105;DHT22;4095;48.942;9.104;2023-01-23T06:29:10;4.80;99.90
8105;DHT22;4095;48.942;9.104;2023-01-23T06:31:35;4.80;99.90
8105;DHT22;4095;48.942;9.104;2023-01-23T06:34:01;4.80;99.90
8105;DHT22;4095;48.942;9.104;2023-01-23T06:36:27;4.80;99.90
8105;DHT22;4095;48.942;9.104;2023-01-23T06:38:52;4.80;99.90
8105;DHT22;4095;48.942;9.104;2023-01-23T06:41:18;4.80;99.90
8105;DHT22;4095;48.942;9.104;2023-01-23T06:43:44;4.80;99.90
8105;DHT22;4095;48.942;9.104;2023-01-23T06:46:10;4.80;99.90
8105;DHT22;4095;48.942;9.104;2023-01-23T06:48:36;4.80;99.90
8105;DHT22;4095;48.942;9.104;2023-01-23T06:51:03;4.80;99.90
8105;DHT22;4095;48.942;9.104;2023-01-23T06:53:29;4.80;99.90
8105;DHT22;4095;48.942;9.104;2023-01-23T06:55:59;4.80;99.90
8105;DHT22;4095;48.942;9.104;2023-01-23T06:58:25;4.80;99.90
8105;DHT22;4095;48.942;9.104;2023-01-23T07:00:51;4.80;99.90
8105;DHT22;4095;48.942;9.104;2023-01-23T07:03:16;4.80;99.90
8105;DHT22;4095;48.942;9.104;2023-01-23T07:05:42;4.80;99.90
8105;DHT22;4095;48.942;9.104;2023-01-23T07:08:08;4.80;99.90
8105;DHT22;4095;48.942;9.104;2023-01-23T07:10:34;4.80;99.90
8105;DHT22;4095;48.942;9.104;2023-01-23T07:13:03;4.80;99.90
8105;DHT22;4095;48.942;9.104;2023-01-23T07:15:28;4.90;99.90
8105;DHT22;4095;48.942;9.104;2023-01-23T07:17:54;4.90;99.90
8105;DHT22;4095;48.942;9.104;2023-01-23T07:20:20;4.90;99.90
8105;DHT22;4095;48.942;9.104;2023-01-23T07:22:45;4.90;99.90
8105;DHT22;4095;48.942;9.104;2023-01-23T07:25:11;4.90;99.90
8105;DHT22;4095;48.942;9.104;2023-01-23T07:27:36;4.90;99.90
8105;DHT22;4095;48.942;9.104;2023-01-23T07:30:02;4.90;99.90
8105;DHT22;4095;48.942;9.104;2023-01-23T07:32:27;4.90;99.90
8105;DHT22;4095;48.942;9.104;2023-01-23T07:34:53;4.90;99.90
8105;DHT22;4095;48.942;9.104;2023-01-23T07:37:18;4.90;99.90
8105;DHT22;4095;48.942;9.104;2023-01-23T07:39:44;4.90;99.90
8105;DHT22;4095;48.942;9.104;2023-01-23T07:42:10;4.90;99.90
8105;DHT22;4095;48.942;9.104;2023-01-23T07:44:36;4.90;99.90
8105;DHT22;4095;48.942;9.104;2023-01-23T07:47:01;4.90;99.90
8105;DHT22;4095;48.942;9.104;2023-01-23T07:49:27;4.90;99.90
8105;DHT22;4095;48.942;9.104;2023-01-23T07:51:52;4.90;99.90
8105;DHT22;4095;48.942;9.104;2023-01-23T07:54:18;4.90;99.90
8105;DHT22;4095;48.942;9.104;2023-01-23T07:56:43;4.90;99.90
8105;DHT22;4095;48.942;9.104;2023-01-23T07:59:11;5.00;99.90
8105;DHT22;4095;48.942;9.104;2023-01-23T08:01:36;5.00;99.90
8105;DHT22;4095;48.942;9.104;2023-01-23T08:04:02;5.00;99.90
8105;DHT22;4095;48.942;9.104;2023-01-23T08:06:27;5.00;99.90
8105;DHT22;4095;48.942;9.104;2023-01-23T08:08:54;5.00;99.90
8105;DHT22;4095;48.942;9.104;2023-01-23T08:11:20;5.00;99.90
8105;DHT22;4095;48.942;9.104;2023-01-23T08:13:49;5.00;99.90
8105;DHT22;4095;48.942;9.104;2023-01-23T08:16:15;5.00;99.90
8105;DHT22;4095;48.942;9.104;2023-01-23T08:18:40;5.10;99.90
8105;DHT22;4095;48.942;9.104;2023-01-23T08:21:06;5.10;99.90
8105;DHT22;4095;48.942;9.104;2023-01-23T08:23:32;5.10;99.90
8105;DHT22;4095;48.942;9.104;2023-01-23T08:26:01;5.10;99.90
8105;DHT22;4095;48.942;9.104;2023-01-23T08:28:26;5.10;99.90
8105;DHT22;4095;48.942;9.104;2023-01-23T08:30:52;5.20;99.90
8105;DHT22;4095;48.942;9.104;2023-01-23T08:33:19;5.20;99.90
8105;DHT22;4095;48.942;9.104;2023-01-23T08:38:14;5.20;99.70
8105;DHT22;4095;48.942;9.104;2023-01-23T08:40:40;5.20;99.70
8105;DHT22;4095;48.942;9.104;2023-01-23T08:43:05;5.20;99.60
8105;DHT22;4095;48.942;9.104;2023-01-23T08:45:30;5.30;99.50
8105;DHT22;4095;48.942;9.104;2023-01-23T08:47:56;5.30;99.40
8105;DHT22;4095;48.942;9.104;2023-01-23T08:50:22;5.30;99.20
8105;DHT22;4095;48.942;9.104;2023-01-23T08:52:47;5.30;98.90
8105;DHT22;4095;48.942;9.104;2023-01-23T08:55:13;5.20;98.90
8105;DHT22;4095;48.942;9.104;2023-01-23T08:57:39;5.30;99.00
8105;DHT22;4095;48.942;9.104;2023-01-23T09:00:05;5.30;98.90
8105;DHT22;4095;48.942;9.104;2023-01-23T09:02:30;5.30;99.00
8105;DHT22;4095;48.942;9.104;2023-01-23T09:04:56;5.30;98.80
8105;DHT22;4095;48.942;9.104;2023-01-23T09:07:21;5.30;98.90
8105;DHT22;4095;48.942;9.104;2023-01-23T09:09:47;5.30;99.10
8105;DHT22;4095;48.942;9.104;2023-01-23T09:12:12;5.30;99.10
8105;DHT22;4095;48.942;9.104;2023-01-23T09:14:38;5.40;99.20
8105;DHT22;4095;48.942;9.104;2023-01-23T09:17:04;5.40;98.80
8105;DHT22;4095;48.942;9.104;2023-01-23T09:19:31;5.40;98.90
8105;DHT22;4095;48.942;9.104;2023-01-23T09:21:57;5.50;98.90
8105;DHT22;4095;48.942;9.104;2023-01-23T09:24:22;5.50;98.90
8105;DHT22;4095;48.942;9.104;2023-01-23T09:26:48;5.50;99.10
8105;DHT22;4095;48.942;9.104;2023-01-23T09:29:14;5.50;99.00
8105;DHT22;4095;48.942;9.104;2023-01-23T09:31:40;5.60;99.20
8105;DHT22;4095;48.942;9.104;2023-01-23T09:34:05;5.60;99.00
8105;DHT22;4095;48.942;9.104;2023-01-23T09:36:32;5.70;99.30
8105;DHT22;4095;48.942;9.104;2023-01-23T09:38:57;5.60;99.20
8105;DHT22;4095;48.942;9.104;2023-01-23T09:41:26;5.60;99.30
8105;DHT22;4095;48.942;9.104;2023-01-23T09:44:05;5.70;99.70
8105;DHT22;4095;48.942;9.104;2023-01-23T09:47:03;5.70;99.40
8105;DHT22;4095;48.942;9.104;2023-01-23T09:52:19;5.70;99.40
8105;DHT22;4095;48.942;9.104;2023-01-23T09:57:34;5.60;99.50
8105;DHT22;4095;48.942;9.104;2023-01-23T10:02:43;5.60;99.20
8105;DHT22;4095;48.942;9.104;2023-01-23T10:05:13;5.60;99.30
8105;DHT22;4095;48.942;9.104;2023-01-23T10:26:59;5.70;98.30
8105;DHT22;4095;48.942;9.104;2023-01-23T10:29:31;5.70;98.40
8105;DHT22;4095;48.942;9.104;2023-01-23T10:31:58;5.80;98.20
8105;DHT22;4095;48.942;9.104;2023-01-23T10:34:49;5.90;98.00
8105;DHT22;4095;48.942;9.104;2023-01-23T10:40:15;5.80;97.50
8105;DHT22;4095;48.942;9.104;2023-01-23T10:42:42;5.80;97.80
8105;DHT22;4095;48.942;9.104;2023-01-23T10:45:15;5.90;97.60
8105;DHT22;4095;48.942;9.104;2023-01-23T10:47:45;6.00;97.80
8105;DHT22;4095;48.942;9.104;2023-01-23T10:50:11;6.10;97.80
8105;DHT22;4095;48.942;9.104;2023-01-23T10:57:45;6.30;97.10
8105;DHT22;4095;48.942;9.104;2023-01-23T11:00:44;6.30;97.00
8105;DHT22;4095;48.942;9.104;2023-01-23T11:05:53;6.30;97.10
8105;DHT22;4095;48.942;9.104;2023-01-23T11:08:33;6.40;97.00
8105;DHT22;4095;48.942;9.104;2023-01-23T11:13:46;6.30;96.70
8105;DHT22;4095;48.942;9.104;2023-01-23T11:16:20;6.30;96.60
8105;DHT22;4095;48.942;9.104;2023-01-23T11:21:54;6.20;96.50
8105;DHT22;4095;48.942;9.104;2023-01-23T11:24:33;6.20;96.70
8105;DHT22;4095;48.942;9.104;2023-01-23T11:27:19;6.20;96.80
8105;DHT22;4095;48.942;9.104;2023-01-23T11:32:54;6.30;96.70
8105;DHT22;4095;48.942;9.104;2023-01-23T11:38:37;6.50;96.90
8105;DHT22;4095;48.942;9.104;2023-01-23T11:41:04;6.80;97.00
8105;DHT22;4095;48.942;9.104;2023-01-23T11:43:33;7.00;96.40
8105;DHT22;4095;48.942;9.104;2023-01-23T11:58:10;7.60;95.40
8105;DHT22;4095;48.942;9.104;2023-01-23T12:03:42;7.70;95.10
8105;DHT22;4095;48.942;9.104;2023-01-23T12:06:41;7.60;95.10
8105;DHT22;4095;48.942;9.104;2023-01-23T12:09:11;7.30;95.40
8105;DHT22;4095;48.942;9.104;2023-01-23T12:17:22;6.90;95.80
8105;DHT22;4095;48.942;9.104;2023-01-23T12:25:39;6.80;96.00
8105;DHT22;4095;48.942;9.104;2023-01-23T12:28:27;6.90;96.10
8105;DHT22;4095;48.942;9.104;2023-01-23T12:31:09;6.80;96.10
8105;DHT22;4095;48.942;9.104;2023-01-23T12:41:51;6.70;96.10
8105;DHT22;4095;48.942;9.104;2023-01-23T12:47:08;6.60;96.40
8105;DHT22;4095;48.942;9.104;2023-01-23T12:52:34;6.60;96.40
8105;DHT22;4095;48.942;9.104;2023-01-23T12:55:24;6.60;96.40
8105;DHT22;4095;48.942;9.104;2023-01-23T12:57:54;6.50;96.30
8105;DHT22;4095;48.942;9.104;2023-01-23T13:03:28;6.60;96.40
8105;DHT22;4095;48.942;9.104;2023-01-23T13:11:22;6.70;96.60
8105;DHT22;4095;48.942;9.104;2023-01-23T13:16:54;6.80;96.70
8105;DHT22;4095;48.942;9.104;2023-01-23T13:19:27;6.80;96.40
8105;DHT22;4095;48.942;9.104;2023-01-23T13:22:24;6.80;96.50
8105;DHT22;4095;48.942;9.104;2023-01-23T13:24:53;6.90;96.70
8105;DHT22;4095;48.942;9.104;2023-01-23T13:32:55;6.90;96.40
8105;DHT22;4095;48.942;9.104;2023-01-23T13:52:21;7.80;95.70
8105;DHT22;4095;48.942;9.104;2023-01-23T13:55:15;7.70;95.30
8105;DHT22;4095;48.942;9.104;2023-01-23T13:58:03;7.80;95.50
8105;DHT22;4095;48.942;9.104;2023-01-23T14:00:30;7.80;95.40
8105;DHT22;4095;48.942;9.104;2023-01-23T14:03:31;7.70;95.30
8105;DHT22;4095;48.942;9.104;2023-01-23T14:06:16;7.80;95.60
8105;DHT22;4095;48.942;9.104;2023-01-23T14:08:53;7.90;95.30
8105;DHT22;4095;48.942;9.104;2023-01-23T14:11:20;8.30;95.30
8105;DHT22;4095;48.942;9.104;2023-01-23T14:13:50;8.30;95.10
8105;DHT22;4095;48.942;9.104;2023-01-23T14:16:40;8.20;95.00
8105;DHT22;4095;48.942;9.104;2023-01-23T14:19:24;8.10;95.20
8105;DHT22;4095;48.942;9.104;2023-01-23T14:21:53;8.10;95.50
8105;DHT22;4095;48.942;9.104;2023-01-23T14:24:22;8.00;95.30
8105;DHT22;4095;48.942;9.104;2023-01-23T14:26:50;7.80;95.50
8105;DHT22;4095;48.942;9.104;2023-01-23T14:29:24;7.70;95.40
8105;DHT22;4095;48.942;9.104;2023-01-23T14:31:50;7.60;95.70
8105;DHT22;4095;48.942;9.104;2023-01-23T14:34:21;7.40;95.90
8105;DHT22;4095;48.942;9.104;2023-01-23T14:37:02;7.30;96.00
8105;DHT22;4095;48.942;9.104;2023-01-23T14:39:31;7.20;96.20
8105;DHT22;4095;48.942;9.104;2023-01-23T14:41:58;7.20;96.20
8105;DHT22;4095;48.942;9.104;2023-01-23T14:44:38;7.20;96.40
8105;DHT22;4095;48.942;9.104;2023-01-23T14:47:04;7.10;96.10
8105;DHT22;4095;48.942;9.104;2023-01-23T14:49:34;7.00;96.00
8105;DHT22;4095;48.942;9.104;2023-01-23T14:52:03;7.00;96.30
8105;DHT22;4095;48.942;9.104;2023-01-23T14:54:30;6.90;96.40
8105;DHT22;4095;48.942;9.104;2023-01-23T14:56:57;6.90;96.60
8105;DHT22;4095;48.942;9.104;2023-01-23T14:59:38;6.90;96.60
8105;DHT22;4095;48.942;9.104;2023-01-23T15:02:34;6.90;96.60
8105;DHT22;4095;48.942;9.104;2023-01-23T15:07:41;6.70;96.70
8105;DHT22;4095;48.942;9.104;2023-01-23T15:15:19;6.60;97.00
8105;DHT22;4095;48.942;9.104;2023-01-23T15:17:45;6.60;97.10
8105;DHT22;4095;48.942;9.104;2023-01-23T15:22:52;6.50;96.90
8105;DHT22;4095;48.942;9.104;2023-01-23T15:25:28;6.50;97.10
8105;DHT22;4095;48.942;9.104;2023-01-23T15:27:55;6.40;97.20
8105;DHT22;4095;48.942;9.104;2023-01-23T15:30:44;6.40;97.20
8105;DHT22;4095;48.942;9.104;2023-01-23T15:33:28;6.30;97.30
8105;DHT22;4095;48.942;9.104;2023-01-23T15:36:11;6.30;97.50
8105;DHT22;4095;48.942;9.104;2023-01-23T15:38:45;6.30;97.40
8105;DHT22;4095;48.942;9.104;2023-01-23T15:41:11;6.20;97.50
8105;DHT22;4095;48.942;9.104;2023-01-23T15:43:36;6.20;97.50
8105;DHT22;4095;48.942;9.104;2023-01-23T15:46:02;6.20;97.60
8105;DHT22;4095;48.942;9.104;2023-01-23T15:48:27;6.20;97.60
8105;DHT22;4095;48.942;9.104;2023-01-23T15:50:53;6.20;97.70
8105;DHT22;4095;48.942;9.104;2023-01-23T15:53:19;6.30;97.50
8105;DHT22;4095;48.942;9.104;2023-01-23T15:55:44;6.20;97.50
8105;DHT22;4095;48.942;9.104;2023-01-23T15:58:13;6.30;97.50
8105;DHT22;4095;48.942;9.104;2023-01-23T16:00:39;6.20;97.30
8105;DHT22;4095;48.942;9.104;2023-01-23T16:03:05;6.20;97.30
8105;DHT22;4095;48.942;9.104;2023-01-23T16:05:34;6.10;97.50
8105;DHT22;4095;48.942;9.104;2023-01-23T16:08:00;6.20;97.60
8105;DHT22;4095;48.942;9.104;2023-01-23T16:10:37;6.20;97.40
8105;DHT22;4095;48.942;9.104;2023-01-23T16:13:04;6.10;97.50
8105;DHT22;4095;48.942;9.104;2023-01-23T16:15:31;6.10;97.50
8105;DHT22;4095;48.942;9.104;2023-01-23T16:17:57;6.10;97.60
8105;DHT22;4095;48.942;9.104;2023-01-23T16:20:27;6.10;97.70
8105;DHT22;4095;48.942;9.104;2023-01-23T16:22:56;6.20;97.70
8105;DHT22;4095;48.942;9.104;2023-01-23T16:25:38;6.10;97.40
8105;DHT22;4095;48.942;9.104;2023-01-23T16:28:24;6.20;97.60
8105;DHT22;4095;48.942;9.104;2023-01-23T16:30:53;6.20;97.50
8105;DHT22;4095;48.942;9.104;2023-01-23T16:33:20;6.10;97.50
8105;DHT22;4095;48.942;9.104;2023-01-23T16:35:46;6.10;97.60
8105;DHT22;4095;48.942;9.104;2023-01-23T16:38:24;6.10;97.70
8105;DHT22;4095;48.942;9.104;2023-01-23T16:40:50;6.10;97.70
8105;DHT22;4095;48.942;9.104;2023-01-23T16:43:17;6.20;97.60
8105;DHT22;4095;48.942;9.104;2023-01-23T16:45:43;6.20;97.60
8105;DHT22;4095;48.942;9.104;2023-01-23T16:48:09;6.20;97.70
8105;DHT22;4095;48.942;9.104;2023-01-23T16:50:37;6.30;97.70
8105;DHT22;4095;48.942;9.104;2023-01-23T16:53:13;6.30;97.80
8105;DHT22;4095;48.942;9.104;2023-01-23T16:55:43;6.30;97.60
8105;DHT22;4095;48.942;9.104;2023-01-23T16:58:15;6.30;97.70
8105;DHT22;4095;48.942;9.104;2023-01-23T17:00:42;6.30;97.50
8105;DHT22;4095;48.942;9.104;2023-01-23T17:03:09;6.30;97.50
8105;DHT22;4095;48.942;9.104;2023-01-23T17:05:35;6.30;97.50
8105;DHT22;4095;48.942;9.104;2023-01-23T17:08:17;6.30;97.60
8105;DHT22;4095;48.942;9.104;2023-01-23T17:10:43;6.30;97.70
8105;DHT22;4095;48.942;9.104;2023-01-23T17:13:10;6.30;97.70
8105;DHT22;4095;48.942;9.104;2023-01-23T17:15:35;6.30;97.70
8105;DHT22;4095;48.942;9.104;2023-01-23T17:18:02;6.30;97.80
8105;DHT22;4095;48.942;9.104;2023-01-23T17:20:28;6.30;97.70
8105;DHT22;4095;48.942;9.104;2023-01-23T17:22:54;6.30;97.70
8105;DHT22;4095;48.942;9.104;2023-01-23T17:25:22;6.30;97.70
8105;DHT22;4095;48.942;9.104;2023-01-23T17:27:48;6.40;97.70
8105;DHT22;4095;48.942;9.104;2023-01-23T17:30:20;6.30;97.50
8105;DHT22;4095;48.942;9.104;2023-01-23T17:32:49;6.30;97.80
8105;DHT22;4095;48.942;9.104;2023-01-23T17:35:23;6.30;97.80
8105;DHT22;4095;48.942;9.104;2023-01-23T17:38:21;6.40;97.70
8105;DHT22;4095;48.942;9.104;2023-01-23T17:40:50;6.40;97.70
8105;DHT22;4095;48.942;9.104;2023-01-23T17:43:19;6.40;97.60
8105;DHT22;4095;48.942;9.104;2023-01-23T17:45:47;6.40;97.60
8105;DHT22;4095;48.942;9.104;2023-01-23T17:48:17;6.40;97.50
8105;DHT22;4095;48.942;9.104;2023-01-23T17:50:43;6.30;97.50
8105;DHT22;4095;48.942;9.104;2023-01-23T17:53:14;6.30;97.70
8105;DHT22;4095;48.942;9.104;2023-01-23T17:55:43;6.30;97.70
8105;DHT22;4095;48.942;9.104;2023-01-23T17:58:17;6.30;97.70
8105;DHT22;4095;48.942;9.104;2023-01-23T18:00:46;6.30;97.80
8105;DHT22;4095;48.942;9.104;2023-01-23T18:03:16;6.30;97.80
8105;DHT22;4095;48.942;9.104;2023-01-23T18:05:44;6.40;98.00
8105;DHT22;4095;48.942;9.104;2023-01-23T18:08:13;6.30;97.70
8105;DHT22;4095;48.942;9.104;2023-01-23T18:10:40;6.30;97.90
8105;DHT22;4095;48.942;9.104;2023-01-23T18:16:06;6.30;97.90
8105;DHT22;4095;48.942;9.104;2023-01-23T18:18:34;6.30;97.90
8105;DHT22;4095;48.942;9.104;2023-01-23T18:21:03;6.40;97.80
8105;DHT22;4095;48.942;9.104;2023-01-23T18:23:30;6.40;98.00
8105;DHT22;4095;48.942;9.104;2023-01-23T18:28:40;6.50;97.80
8105;DHT22;4095;48.942;9.104;2023-01-23T18:31:21;6.40;97.80
8105;DHT22;4095;48.942;9.104;2023-01-23T18:34:10;6.50;97.70
8105;DHT22;4095;48.942;9.104;2023-01-23T18:36:40;6.50;97.80
8105;DHT22;4095;48.942;9.104;2023-01-23T18:44:30;6.50;97.60
8105;DHT22;4095;48.942;9.104;2023-01-23T18:46:59;6.40;97.50
8105;DHT22;4095;48.942;9.104;2023-01-23T18:49:30;6.50;97.80
8105;DHT22;4095;48.942;9.104;2023-01-23T18:52:14;6.50;97.60
8105;DHT22;4095;48.942;9.104;2023-01-23T18:57:43;6.50;97.80
8105;DHT22;4095;48.942;9.104;2023-01-23T19:00:26;6.50;97.80
8105;DHT22;4095;48.942;9.104;2023-01-23T19:02:57;6.50;97.80
8105;DHT22;4095;48.942;9.104;2023-01-23T19:05:28;6.40;97.80